首页
METAR-TAF:

METAR-TAF

机场 :

成都, 中华人民共和国

成都双流国际机场

纬度: 30-40N, 经度: 104-01E, 海拔: 508米

当前天气观测

该预报发布于22分钟前的22:00 UTC
静风
温度 16°C
湿度 94%
气压 1016 hPa
能见度10公里或以上
散云层高于5000英尺

METAR: ZUUU 252200Z 00000MPS 9999 SCT050 16/15 Q1016 NOSIG

时间: 06:22 (22:22 UTC)

预报

该预报发布于8小时和21分钟前的14:01 UTC
预报有效从25日的 18点(UTC)到 26日的 18点(UTC)
风速6节,风向西南
能見度: 5000
散云层高于5000英尺
轻雾

TAF: ZUUU 251401Z 2518/2618 22003MPS 5000 BR SCT050 TX27/2607Z TN16/2522Z

超过4000个机场的气象观测和天气预报(METAR&TAF报告)。

可查询的气象台以黄色和红色小点在地图上表示。

将鼠标移到小点上方,可查看气象台名称。

然后点击查看天气观测和预报。

如需切换地图:点击带黑十字的绿色按钮放大地图;点击带横线的绿色按钮缩小地图;或者点击绿色箭头查看邻近地区的地图。


METAR-TAF: